Cambridge, Canada
Current Conditions -  °F | °C
As of 9:28 PM on Wednesday 17 Dec 2014 (Local Time) from CYKF Reporting Station
Light Snow Light Snow  
Wind Chill: -9°   Ceiling: 1800
Heat Index: -2°   Visibility: 6mi
Dew Point: -4°   Wind: 21mph
Humidity: 86%   Direction: 270°W
Pressure: 29.97"   Gusts: NA
Location:  43.38°N, 80.32°W
Report Text: CYKF 180228Z AUTO 27018KT 6SM -SN SCT013 BKN018 OVC046 M02/M04 A2997 RMK SLP161
Loading
Personal Weather Stations






























Interactive Weather Map New forecast layout! Learn more

10-Day Weather Forecast

Advertisements
Track Severe Weather on mobile